Terminal Aerodrome Forecast
Issued by NWS

Current Version | Previous Version | Graphics & Text | Print | Product List | Glossary On
Versions: 1 2 3 4 5 6 7 8 9 10 11 12 13 14 15 16 17 18 19 20 21 22 23 24 25
728
FTUS41 KRLX 201525 AAA
TAFCKB
TAF AMD
KCKB 201525Z 2015/2112 15004KT P6SM -SHRA OVC025
     FM201800 19006KT P6SM OVC035
     FM202200 23005KT P6SM BKN040
     FM210800 19003KT 4SM BR BKN050=

USA.gov is the U.S. government's official web portal to all federal, state and local government web resources and services.